Hovedside
METAR-TAF:

METAR-TAF

Lufthavner :

Örebro, Sverige

breddegrad: 59-14N, lengdegrad: 015-03E, høyde over havet: 57 m

Gjeldene værobservasjon

Denne rapporten ble laget for 18 minutter siden, klokken 04:20 UTC
Vind 5 kt fra Nordøst
Temperatur -2°C
Luftfuktighet 93%
Trykk 1024 hPa
Sikt: 7000 m
dis

METAR: ESOE 190420Z AUTO 04005KT 7000 BR OVC032/// M02/M03 Q1024

Tid: 05:38 (04:38 UTC)

Varsel

Denne rapporten ble laget for 1 time og 8 minutter siden, klokken 03:30 UTC
Varsel gyldig fra 19. klokken 04 UTC til 19. klokken 12 UTC
Vind 3 kt fra Nord-nordøst
Sikt: 8000 m
Brutte skyer i en høyde av 3500 ft

TAF: ESOE 190330Z 1904/1912 03003KT 8000 BKN035

Værobservasjoner og værvarsel for over 4000 flyplasser (METAR- og TAF-rapporter).

Tilgjengelige stasjoner er representert av de røde og gule prikkene på kartet.

Hold musepekeren over prikken for å se navnet på stasjonen.

Klikk så for å se værobservasjoner og -varsler.

For å forandre kartet kan du klikke på den grønne knappen med svart kryss for å zoome inn, på den grønne knappen med strek for å zoome ut, eller på de grønne pilene for å se tilstøtende kart.


METAR-TAF: